CA-0483 weather

CLOSED Armour Heights Field
Toronto, Ontario, Canada

Public forecast

Using degrees Celsius for public forecast. Weather courtesy of forecast.io.

Closest aviation weather report (METAR) to Armour Heights Field

Closest report is Billy Bishop Toronto City Centre Airport, 6.9 nm (12.8 km) S. Retrieved 2020/07/07 09:00 UTC (26 minutes ago):

CYTZ 070900Z AUTO 08006KT 9SM CLR 22/16 A2996 RMK SLP146 DENSITY ALT 1000FT

Closest aviation forecast (TAF) to Armour Heights Field

Closest forecast is Billy Bishop Toronto City Centre Airport, 6.9 nm (12.8 km) S. Retrieved 2020/07/07 08:45 UTC (41 minutes ago):

TAF CYTZ 070738Z 0708/0808 08008KT P6SM FEW250 FM071500 11008KT P6SM SCT060 BECMG 0800/0802 06006KT FM080600 28005KT P6SM BKN070 RMK FCST BASED ON AUTO OBS NXT FCST BY 071400Z